Terminal Aerodrome Forecast
Issued by NWS

Home | Current Version | Previous Version | Graphics & Text | Print | Product List | Glossary On
Versions: 1 2 3 4 5 6 7 8 9 10 11 12 13 14 15 16 17 18 19 20 21
000
FTUS43 KICT 221722
TAFHUT
TAF
KHUT 221722Z 2218/2318 11012KT P6SM OVC030
     FM230100 13010KT P6SM OVC020
     FM230500 14010KT P6SM VCSH OVC012
     FM230800 14011KT 5SM -DZ OVC008
     FM231100 15013KT 3SM -DZ BR OVC004
     FM231500 17018G26KT P6SM OVC010=

USA.gov is the U.S. government's official web portal to all federal, state and local government web resources and services.